Air Navigation Services of Czech Republic  
Last data update:  25.10.2021 23:05:30 UTC česká verze
   METEO Page displayed:  25.10.2021 23:06:55 UTC  
vysvětlivky
METAR EDDB 252250Z 19005KT CAVOK 04/03 Q1018 NOSIG=
METAR EDDC 252250Z VRB02KT CAVOK 06/03 Q1020=
METAR EDDE 252250Z 19009KT 9999 FEW043 08/05 Q1019=
METAR EDDF 252250Z 18005KT 9999 VCSH FEW034TCU BKN042 07/07 Q1020 NOSIG=
METAR EDDM 252250Z 15002KT 3000 1100NE R26R/0800D R26L/1200U BCFG BR NSC M00/M00 Q1022 BECMG 1200=
METAR EDDN 252250Z 11007KT CAVOK 05/04 Q1021=
METAR EDDP 252250Z 21010KT CAVOK 08/05 Q1019 NOSIG=
METAR EDQM NIL
METAR EPBY 252300Z VRB01KT CAVOK 04/01 Q1019=
METAR EPGD 252300Z 20003KT 170V240 CAVOK 04/02 Q1017=
METAR EPKK 252300Z 06003KT 030V090 6000 NSC M00/M01 Q1022=
METAR EPKT 252300Z VRB01KT 8000 NSC 02/M01 Q1022=
METAR EPLL 252300Z 19003KT 130V250 CAVOK 05/M01 Q1021=
METAR EPPO 252300Z 22005KT CAVOK 05/02 Q1019=
METAR EPRZ 252300Z 08004KT CAVOK 02/M02 Q1024=
METAR EPWA 252300Z 16007KT CAVOK 02/01 Q1021 NOSIG=
METAR EPWR 252300Z VRB01KT CAVOK 03/M00 Q1021=
METAR LHBP 252300Z 10006KT CAVOK 06/M01 Q1026 NOSIG=
METAR LHSM 252245Z AUTO 31003KT 5000 BR NCD 01/01 Q1024=
METAR LKBC 252300Z AUTO 00000KT 9999 BKN220 01/M01 Q1021=
METAR LKCV 252300Z VRB02KT CAVOK 03/M01 Q1022 RMK BLACK=
METAR LKKB 252300Z 20005KT CAVOK 03/01 Q1021 RMK BLU=
METAR LKKU NIL
METAR LKKV 252300Z 33002KT CAVOK 03/02 Q1021 RMK REG QNH 1018=
METAR LKLN 252300Z AUTO VRB01KT 6000 FEW160 BKN190 01/M00 Q1022=
METAR LKMT 252300Z 25008KT CAVOK 04/00 Q1022 NOSIG RMK REG QNH 1018=
METAR LKNA 252300Z 11010KT CAVOK 04/01 Q1022 RMK BLU=
METAR COR LKPD 252300Z VRB02KT CAVOK 03/M01 Q1022 RMK BLU=
METAR LKPJ 252300Z AUTO 29003KT CAVOK M00/M03 Q1023=
METAR LKPR 252300Z 21004KT 130V230 CAVOK 02/00 Q1021 NOSIG RMK REG QNH 1018=
METAR LKTB 252300Z 08007KT CAVOK 06/00 Q1023 NOSIG RMK REG QNH 1018=
METAR LKVO NIL
METAR LOWI 252250Z AUTO VRB01KT 9999 NSC 02/01 Q1023=
METAR LOWL 252250Z AUTO 28004KT 7000 NSC 03/02 Q1022=
METAR LOWS 252250Z AUTO VRB03KT 9999 NSC 04/03 Q1022=
METAR LOWW 252250Z 13010KT CAVOK 06/02 Q1022 NOSIG=
METAR LZIB 252300Z 01004KT CAVOK 03/01 Q1024=
METAR LZKZ 252300Z 29001KT CAVOK M00/M02 Q1027=
METAR LZMC NIL
METAR LZPP 252300Z AUTO 12010KT 9999 NCD 09/M00 Q1024=
METAR LZSL NIL
METAR LZTT 252300Z 17007KT 140V210 CAVOK 02/M04 Q1024=
METAR LZZI 252300Z VRB01KT CAVOK M01/M03 Q1025=